Observation data for Sundown on 08/14/2019      Previous  Date  Next       Current Mesonet Observations  Soil Data  Daily Summary Page  Observations in Plain Language
KSDS 140500Z 08006KT 24/16 A3015 RMK A01 T02410159  RH  063%=      5-min Rain = 0
KSDS 140505Z 08006KT 24/16 A3015 RMK A01 T02390159  RH  064%=      5-min Rain = 0
KSDS 140510Z 07006KT 24/16 A3015 RMK A01 T02370159  RH  065%=      5-min Rain = 0
KSDS 140515Z 07006KT 24/16 A3015 RMK A01 T02360159  RH  065%=      5-min Rain = 0
KSDS 140520Z 06006KT 24/16 A3015 RMK A01 T02350160  RH  066%=      5-min Rain = 0
KSDS 140525Z 06006KT 23/16 A3015 RMK A01 T02340160  RH  066%=      5-min Rain = 0
KSDS 140530Z 05006KT 23/16 A3015 RMK A01 T02330160  RH  067%=      5-min Rain = 0
KSDS 140535Z 05007KT 23/16 A3015 RMK A01 T02290160  RH  068%=      5-min Rain = 0
KSDS 140540Z 05007KT 23/16 A3015 RMK A01 T02280160  RH  068%=      5-min Rain = 0
KSDS 140545Z 05007KT 23/16 A3015 RMK A01 T02270160  RH  069%=      5-min Rain = 0
KSDS 140550Z 07005KT 23/16 A3016 RMK A01 T02280160  RH  069%=      5-min Rain = 0
KSDS 140555Z 08005KT 23/16 A3016 RMK A01 T02290160  RH  068%=      5-min Rain = 0
KSDS 140600Z 07005KT 23/16 A3016 RMK A01 T02280160  RH  069%=      5-min Rain = 0
KSDS 140605Z 12004KT 23/16 A3016 RMK A01 T02250160  RH  070%=      5-min Rain = 0
KSDS 140610Z 13003KT 22/16 A3015 RMK A01 T02200159  RH  072%=      5-min Rain = 0
KSDS 140615Z 14004KT 22/16 A3015 RMK A01 T02170159  RH  073%=      5-min Rain = 0
KSDS 140620Z 13004KT 22/16 A3015 RMK A01 T02160159  RH  074%=      5-min Rain = 0
KSDS 140625Z 12004KT 22/16 A3015 RMK A01 T02160160  RH  074%=      5-min Rain = 0
KSDS 140630Z 12005KT 22/16 A3015 RMK A01 T02190161  RH  073%=      5-min Rain = 0
KSDS 140635Z 12006KT 22/16 A3015 RMK A01 T02220161  RH  072%=      5-min Rain = 0
KSDS 140640Z 12006KT 22/16 A3015 RMK A01 T02220161  RH  072%=      5-min Rain = 0
KSDS 140645Z 12006KT 22/16 A3015 RMK A01 T02210161  RH  072%=      5-min Rain = 0
KSDS 140650Z 11005KT 22/16 A3015 RMK A01 T02220162  RH  072%=      5-min Rain = 0
KSDS 140655Z 10006KT 22/16 A3015 RMK A01 T02230162  RH  072%=      5-min Rain = 0
KSDS 140700Z 10006KT 22/16 A3015 RMK A01 T02230162  RH  072%=      5-min Rain = 0
KSDS 140705Z 10007KT 22/16 A3015 RMK A01 T02230163  RH  072%=      5-min Rain = 0
KSDS 140710Z 09006KT 22/16 A3015 RMK A01 T02220163  RH  073%=      5-min Rain = 0
KSDS 140715Z 07007KT 22/16 A3016 RMK A01 T02210163  RH  073%=      5-min Rain = 0
KSDS 140720Z 06006KT 22/16 A3016 RMK A01 T02180163  RH  074%=      5-min Rain = 0
KSDS 140725Z 06006KT 21/16 A3016 RMK A01 T02130161  RH  076%=      5-min Rain = 0
KSDS 140730Z 07006KT 21/16 A3016 RMK A01 T02120160  RH  076%=      5-min Rain = 0
KSDS 140735Z 06006KT 21/16 A3016 RMK A01 T02110160  RH  076%=      5-min Rain = 0
KSDS 140740Z 05006KT 21/16 A3016 RMK A01 T02100160  RH  077%=      5-min Rain = 0
KSDS 140745Z 05006KT 21/16 A3016 RMK A01 T02090160  RH  077%=      5-min Rain = 0
KSDS 140750Z 05005KT 21/16 A3016 RMK A01 T02090160  RH  077%=      5-min Rain = 0
KSDS 140755Z 05006KT 21/16 A3016 RMK A01 T02080160  RH  078%=      5-min Rain = 0
KSDS 140800Z 06006KT 21/16 A3016 RMK A01 T02070160  RH  078%=      5-min Rain = 0
KSDS 140805Z 06007KT 21/16 A3016 RMK A01 T02080160  RH  078%=      5-min Rain = 0
KSDS 140810Z 06007KT 21/16 A3017 RMK A01 T02100161  RH  077%=      5-min Rain = 0
KSDS 140815Z 06008KT 21/16 A3017 RMK A01 T02110162  RH  077%=      5-min Rain = 0
KSDS 140820Z 06007KT 21/16 A3016 RMK A01 T02120162  RH  077%=      5-min Rain = 0
KSDS 140825Z 05007KT 21/16 A3016 RMK A01 T02130163  RH  077%=      5-min Rain = 0
KSDS 140830Z 05007KT 21/16 A3016 RMK A01 T02130163  RH  077%=      5-min Rain = 0
KSDS 140835Z 05007KT 21/16 A3016 RMK A01 T02140164  RH  077%=      5-min Rain = 0
KSDS 140840Z 05007KT 22/16 A3016 RMK A01 T02150164  RH  077%=      5-min Rain = 0
KSDS 140845Z 05008KT 22/17 A3016 RMK A01 T02170165  RH  076%=      5-min Rain = 0
KSDS 140850Z 05008KT 22/17 A3016 RMK A01 T02200166  RH  075%=      5-min Rain = 0
KSDS 140855Z 06006KT 22/17 A3016 RMK A01 T02200166  RH  075%=      5-min Rain = 0
KSDS 140900Z 05006KT 22/17 A3016 RMK A01 T02180166  RH  076%=      5-min Rain = 0
KSDS 140905Z 06007KT 22/17 A3016 RMK A01 T02190166  RH  076%=      5-min Rain = 0
KSDS 140910Z 07007KT 22/17 A3016 RMK A01 T02200167  RH  075%=      5-min Rain = 0
KSDS 140915Z 07007KT 22/17 A3016 RMK A01 T02210167  RH  075%=      5-min Rain = 0
KSDS 140920Z 06007KT 22/17 A3016 RMK A01 T02210168  RH  075%=      5-min Rain = 0
KSDS 140925Z 07008KT 22/17 A3016 RMK A01 T02220168  RH  075%=      5-min Rain = 0
KSDS 140930Z 07008KT 22/17 A3016 RMK A01 T02230168  RH  075%=      5-min Rain = 0
KSDS 140935Z 07008KT 22/17 A3015 RMK A01 T02230169  RH  075%=      5-min Rain = 0
KSDS 140940Z 08008KT 22/17 A3015 RMK A01 T02240169  RH  075%=      5-min Rain = 0
KSDS 140945Z 07007KT 22/17 A3016 RMK A01 T02220168  RH  075%=      5-min Rain = 0
KSDS 140950Z 06006KT 22/17 A3016 RMK A01 T02200168  RH  076%=      5-min Rain = 0
KSDS 140955Z 05006KT 22/17 A3016 RMK A01 T02190168  RH  077%=      5-min Rain = 0
KSDS 141000Z 04005KT 22/17 A3016 RMK A01 T02150167  RH  078%=      5-min Rain = 0
KSDS 141005Z 05005KT 21/17 A3016 RMK A01 T02120167  RH  079%=      5-min Rain = 0
KSDS 141010Z 05005KT 21/17 A3016 RMK A01 T02090166  RH  080%=      5-min Rain = 0
KSDS 141015Z 04005KT 21/17 A3016 RMK A01 T02060165  RH  081%=      5-min Rain = 0
KSDS 141020Z 04006KT 20/16 A3016 RMK A01 T02020164  RH  083%=      5-min Rain = 0
KSDS 141025Z 03006KT 20/16 A3017 RMK A01 T02000163  RH  083%=      5-min Rain = 0
KSDS 141030Z 03006KT 20/16 A3017 RMK A01 T01990164  RH  084%=      5-min Rain = 0
KSDS 141035Z 03006KT 20/16 A3017 RMK A01 T01990164  RH  084%=      5-min Rain = 0
KSDS 141040Z 04006KT 20/17 A3017 RMK A01 T02000165  RH  084%=      5-min Rain = 0
KSDS 141045Z 04006KT 20/17 A3017 RMK A01 T02010165  RH  084%=      5-min Rain = 0
KSDS 141050Z 04006KT 20/17 A3017 RMK A01 T02020166  RH  084%=      5-min Rain = 0
KSDS 141055Z 04006KT 20/17 A3017 RMK A01 T02030167  RH  084%=      5-min Rain = 0
KSDS 141100Z 04007KT 21/17 A3017 RMK A01 T02060168  RH  083%=      5-min Rain = 0
KSDS 141105Z 04008KT 21/17 A3017 RMK A01 T02090169  RH  082%=      5-min Rain = 0
KSDS 141110Z 04009KT 21/17 A3017 RMK A01 T02140169  RH  080%=      5-min Rain = 0
KSDS 141115Z 04009KT 22/17 A3017 RMK A01 T02170169  RH  078%=      5-min Rain = 0
KSDS 141120Z 04009KT 22/17 A3018 RMK A01 T02190169  RH  077%=      5-min Rain = 0
KSDS 141125Z 04010KT 22/17 A3018 RMK A01 T02190169  RH  077%=      5-min Rain = 0
KSDS 141130Z 04010G15KT 22/17 A3018 RMK A01 T02200169  RH  077%=      5-min Rain = 0
KSDS 141135Z 05012G21KT 22/17 A3019 RMK A01 T02200169  RH  077%=      5-min Rain = 0
KSDS 141140Z 05014KT 22/17 A3019 RMK A01 T02200169  RH  076%=      5-min Rain = 0
KSDS 141145Z 05015G20KT 22/17 A3019 RMK A01 T02200168  RH  076%=      5-min Rain = 0
KSDS 141150Z 05014G19KT 22/17 A3019 RMK A01 T02200167  RH  076%=      5-min Rain = 0
KSDS 141155Z 05015G21KT 22/17 A3019 RMK A01 T02190167  RH  076%=      5-min Rain = 0
KSDS 141200Z 05015G21KT 22/17 A302 RMK A01 T02190167  RH  076%=      5-min Rain = 0
KSDS 141205Z 04014G20KT 22/17 A302 RMK A01 T02180167  RH  076%=      5-min Rain = 0
KSDS 141210Z 04014KT 22/17 A302 RMK A01 T02170168  RH  077%=      5-min Rain = 0
KSDS 141215Z 04014KT 22/17 A302 RMK A01 T02150168  RH  078%=      5-min Rain = 0
KSDS 141220Z 04013G19KT 21/17 A302 RMK A01 T02140167  RH  078%=      5-min Rain = 0
KSDS 141225Z 04013G18KT 21/17 A3021 RMK A01 T02140167  RH  078%=      5-min Rain = 0
KSDS 141230Z 04013G19KT 21/17 A3021 RMK A01 T02120166  RH  079%=      5-min Rain = 0
KSDS 141235Z 04013KT 21/17 A3021 RMK A01 T02110166  RH  079%=      5-min Rain = 0
KSDS 141240Z 03014G20KT 21/17 A3021 RMK A01 T02110166  RH  080%=      5-min Rain = 0
KSDS 141245Z 04014G21KT 21/17 A3022 RMK A01 T02100165  RH  079%=      5-min Rain = 0
KSDS 141250Z 03015G21KT 21/16 A3022 RMK A01 T02090163  RH  078%=      5-min Rain = 0
KSDS 141255Z 03014G20KT 21/16 A3022 RMK A01 T02080159  RH  077%=      5-min Rain = 0
KSDS 141300Z 04015G21KT 21/16 A3023 RMK A01 T02070156  RH  076%=      5-min Rain = 0
KSDS 141305Z 04015G21KT 21/15 A3023 RMK A01 T02060153  RH  075%=      5-min Rain = 0
KSDS 141310Z 04014G19KT 21/15 A3024 RMK A01 T02060152  RH  075%=      5-min Rain = 0
KSDS 141315Z 04016G24KT 21/15 A3024 RMK A01 T02070149  RH  073%=      5-min Rain = 0
KSDS 141320Z 04017KT 21/14 A3024 RMK A01 T02060144  RH  071%=      5-min Rain = 0
KSDS 141325Z 04015G21KT 21/14 A3025 RMK A01 T02060143  RH  070%=      5-min Rain = 0
KSDS 141330Z 04015G21KT 21/14 A3025 RMK A01 T02050142  RH  070%=      5-min Rain = 0
KSDS 141335Z 04014G20KT 21/14 A3025 RMK A01 T02060142  RH  070%=      5-min Rain = 0
KSDS 141340Z 05013G18KT 21/14 A3026 RMK A01 T02080143  RH  069%=      5-min Rain = 0
KSDS 141345Z 04015KT 21/14 A3026 RMK A01 T02090144  RH  069%=      5-min Rain = 0
KSDS 141350Z 04015G22KT 21/15 A3026 RMK A01 T02120145  RH  069%=      5-min Rain = 0
KSDS 141355Z 04015KT 21/15 A3027 RMK A01 T02130145  RH  068%=      5-min Rain = 0
KSDS 141400Z 04013G19KT 21/15 A3027 RMK A01 T02140146  RH  068%=      5-min Rain = 0
KSDS 141405Z 04015G21KT 22/15 A3027 RMK A01 T02170146  RH  067%=      5-min Rain = 0
KSDS 141410Z 04014G19KT 22/15 A3027 RMK A01 T02210147  RH  066%=      5-min Rain = 0
KSDS 141415Z 04015G21KT 22/15 A3027 RMK A01 T02230147  RH  065%=      5-min Rain = 0
KSDS 141420Z 05014G20KT 22/15 A3028 RMK A01 T02240148  RH  065%=      5-min Rain = 0
KSDS 141425Z 05014G20KT 23/15 A3027 RMK A01 T02250147  RH  064%=      5-min Rain = 0
KSDS 141430Z 04014KT 23/15 A3027 RMK A01 T02280148  RH  063%=      5-min Rain = 0
KSDS 141435Z 04013G18KT 23/15 A3027 RMK A01 T02300149  RH  063%=      5-min Rain = 0
KSDS 141440Z 04014G19KT 23/15 A3027 RMK A01 T02310149  RH  063%=      5-min Rain = 0
KSDS 141445Z 04013KT 23/15 A3027 RMK A01 T02330150  RH  062%=      5-min Rain = 0
KSDS 141450Z 04012KT 23/15 A3028 RMK A01 T02320150  RH  063%=      5-min Rain = 0
KSDS 141455Z 03013KT 23/15 A3028 RMK A01 T02320150  RH  063%=      5-min Rain = 0
KSDS 141500Z 03013G18KT 23/15 A3029 RMK A01 T02340150  RH  062%=      5-min Rain = 0
KSDS 141505Z 02014G19KT 23/15 A3029 RMK A01 T02330148  RH  061%=      5-min Rain = 0
KSDS 141510Z 02010G17KT 23/15 A3028 RMK A01 T02320149  RH  062%=      5-min Rain = 0
KSDS 141515Z 03011KT 23/15 A3028 RMK A01 T02340150  RH  062%=      5-min Rain = 0
KSDS 141520Z 03011KT 24/15 A3028 RMK A01 T02390151  RH  060%=      5-min Rain = 0
KSDS 141525Z 02011KT 24/15 A3029 RMK A01 T02430152  RH  060%=      5-min Rain = 0
KSDS 141530Z 02011KT 25/15 A3029 RMK A01 T02460152  RH  059%=      5-min Rain = 0
KSDS 141535Z 01011KT 25/15 A303 RMK A01 T02500152  RH  057%=      5-min Rain = 0
KSDS 141540Z 01012KT 26/15 A3029 RMK A01 T02570152  RH  055%=      5-min Rain = 0
KSDS 141545Z 00011KT 26/15 A3029 RMK A01 T02600151  RH  053%=      5-min Rain = 0
KSDS 141550Z 01011KT 27/15 A3028 RMK A01 T02650153  RH  052%=      5-min Rain = 0
KSDS 141555Z 00013G19KT 27/15 A3028 RMK A01 T02670151  RH  051%=      5-min Rain = 0
KSDS 141600Z 02012G17KT 26/15 A3027 RMK A01 T02640150  RH  052%=      5-min Rain = 0
KSDS 141605Z 02012KT 27/15 A3026 RMK A01 T02690148  RH  049%=      5-min Rain = 0
KSDS 141610Z 04011G19KT 27/14 A3026 RMK A01 T02710143  RH  047%=      5-min Rain = 0
KSDS 141615Z 04011G18KT 28/14 A3025 RMK A01 T02770144  RH  046%=      5-min Rain = 0
KSDS 141620Z 05011G17KT 28/14 A3025 RMK A01 T02800140  RH  044%=      5-min Rain = 0
KSDS 141625Z 05014KT 28/13 A3025 RMK A01 T02820131  RH  041%=      5-min Rain = 0
KSDS 141630Z 05013KT 28/13 A3024 RMK A01 T02800127  RH  040%=      5-min Rain = 0
KSDS 141635Z 06009G14KT 29/13 A3024 RMK A01 T02850129  RH  040%=      5-min Rain = 0
KSDS 141640Z 06011G17KT 29/13 A3023 RMK A01 T02910125  RH  037%=      5-min Rain = 0
KSDS 141645Z 07011KT 29/13 A3022 RMK A01 T02890128  RH  038%=      5-min Rain = 0
KSDS 141650Z 07013KT 30/13 A3022 RMK A01 T02950129  RH  038%=      5-min Rain = 0
KSDS 141655Z 09012G17KT 30/13 A3022 RMK A01 T02950127  RH  037%=      5-min Rain = 0
KSDS 141700Z 09011G17KT 30/13 A3021 RMK A01 T02990126  RH  036%=      5-min Rain = 0
KSDS 141705Z 09012G17KT 31/13 A3021 RMK A01 T03060130  RH  035%=      5-min Rain = 0
KSDS 141710Z 10014G21KT 31/13 A3021 RMK A01 T03050127  RH  035%=      5-min Rain = 0
KSDS 141715Z 10014G19KT 31/13 A302 RMK A01 T03080130  RH  035%=      5-min Rain = 0
KSDS 141720Z 10015G21KT 31/13 A302 RMK A01 T03070125  RH  034%=      5-min Rain = 0
KSDS 141725Z 09012G18KT 31/12 A302 RMK A01 T03110123  RH  033%=      5-min Rain = 0
KSDS 141730Z 08013G18KT 32/13 A302 RMK A01 T03170125  RH  032%=      5-min Rain = 0
KSDS 141735Z 08014G19KT 31/12 A3021 RMK A01 T03140117  RH  031%=      5-min Rain = 0
KSDS 141740Z 07015G22KT 32/12 A3021 RMK A01 T03170118  RH  031%=      5-min Rain = 0
KSDS 141745Z 07014KT 32/12 A3021 RMK A01 T03170120  RH  031%=      5-min Rain = 0
KSDS 141750Z 07012G18KT 32/12 A3021 RMK A01 T03160121  RH  031%=      5-min Rain = 0
KSDS 141755Z 08011KT 32/12 A3021 RMK A01 T03220124  RH  031%=      5-min Rain = 0
KSDS 141800Z 10013G19KT 32/12 A3021 RMK A01 T03210116  RH  029%=      5-min Rain = 0
KSDS 141805Z 09013G19KT 32/11 A3021 RMK A01 T03200111  RH  029%=      5-min Rain = 0
KSDS 141810Z 09013G18KT 32/12 A3021 RMK A01 T03210115  RH  029%=      5-min Rain = 0
KSDS 141815Z 09011KT 33/12 A302 RMK A01 T03250117  RH  029%=      5-min Rain = 0
KSDS 141820Z 09013KT 32/11 A302 RMK A01 T03240111  RH  028%=      5-min Rain = 0
KSDS 141825Z 09010G16KT 32/11 A302 RMK A01 T03240113  RH  028%=      5-min Rain = 0
KSDS 141830Z 08011G18KT 33/11 A302 RMK A01 T03300109  RH  027%=      5-min Rain = 0
KSDS 141835Z 06012G18KT 33/10 A302 RMK A01 T03310101  RH  025%=      5-min Rain = 0
KSDS 141840Z 08011G17KT 33/10 A302 RMK A01 T03270104  RH  026%=      5-min Rain = 0
KSDS 141845Z 10011G17KT 33/10 A302 RMK A01 T03280102  RH  026%=      5-min Rain = 0
KSDS 141850Z 08010G16KT 33/11 A302 RMK A01 T03280105  RH  026%=      5-min Rain = 0
KSDS 141855Z 07011G16KT 33/10 A302 RMK A01 T03340103  RH  025%=      5-min Rain = 0
KSDS 141900Z 08010G15KT 34/10 A302 RMK A01 T03350099  RH  024%=      5-min Rain = 0
KSDS 141905Z 08011G17KT 33/10 A302 RMK A01 T03300096  RH  024%=      5-min Rain = 0
KSDS 141910Z 07010G19KT 34/10 A302 RMK A01 T03350095  RH  024%=      5-min Rain = 0
KSDS 141915Z 08013G20KT 34/10 A302 RMK A01 T03370096  RH  024%=      5-min Rain = 0
KSDS 141920Z 05010G18KT 34/09 A302 RMK A01 T03390093  RH  023%=      5-min Rain = 0
KSDS 141925Z 05012G18KT 34/09 A3019 RMK A01 T03390089  RH  022%=      5-min Rain = 0
KSDS 141930Z 07010G15KT 34/09 A3019 RMK A01 T03380091  RH  023%=      5-min Rain = 0
KSDS 141935Z 06012G17KT 34/09 A3019 RMK A01 T03410092  RH  022%=      5-min Rain = 0
KSDS 141940Z 05012G19KT 34/09 A3019 RMK A01 T03400089  RH  022%=      5-min Rain = 0
KSDS 141945Z 04011G17KT 34/09 A3019 RMK A01 T03420092  RH  022%=      5-min Rain = 0
KSDS 141950Z 05012G18KT 34/09 A3019 RMK A01 T03430087  RH  021%=      5-min Rain = 0
KSDS 141955Z 07011G17KT 34/09 A3019 RMK A01 T03400088  RH  022%=      5-min Rain = 0
KSDS 142000Z 05009G15KT 34/09 A3019 RMK A01 T03410093  RH  023%=      5-min Rain = 0
KSDS 142005Z 08011KT 34/09 A3018 RMK A01 T03430094  RH  022%=      5-min Rain = 0
KSDS 142010Z 08010KT 34/09 A3018 RMK A01 T03390088  RH  022%=      5-min Rain = 0
KSDS 142015Z 04008G13KT 34/09 A3018 RMK A01 T03400085  RH  021%=      5-min Rain = 0
KSDS 142020Z 05010KT 34/09 A3017 RMK A01 T03420091  RH  022%=      5-min Rain = 0
KSDS 142025Z 05010G16KT 34/09 A3017 RMK A01 T03410089  RH  022%=      5-min Rain = 0
KSDS 142030Z 08008G13KT 34/09 A3017 RMK A01 T03380090  RH  022%=      5-min Rain = 0
KSDS 142035Z 10005KT 34/09 A3017 RMK A01 T03400087  RH  022%=      5-min Rain = 0
KSDS 142040Z 05011G17KT 34/09 A3016 RMK A01 T03440094  RH  022%=      5-min Rain = 0
KSDS 142045Z 08006G13KT 34/10 A3016 RMK A01 T03390095  RH  023%=      5-min Rain = 0
KSDS 142050Z 09008G15KT 34/10 A3016 RMK A01 T03420098  RH  023%=      5-min Rain = 0
KSDS 142055Z 06009KT 34/10 A3015 RMK A01 T03430095  RH  023%=      5-min Rain = 0
KSDS 142100Z 06007KT 34/09 A3015 RMK A01 T03400093  RH  023%=      5-min Rain = 0
KSDS 142105Z 06008G13KT 34/09 A3015 RMK A01 T03420094  RH  023%=      5-min Rain = 0
KSDS 142110Z 06008G13KT 34/09 A3014 RMK A01 T03410091  RH  022%=      5-min Rain = 0
KSDS 142115Z 08007G12KT 34/09 A3014 RMK A01 T03400090  RH  022%=      5-min Rain = 0
KSDS 142120Z 10007KT 34/09 A3014 RMK A01 T03400092  RH  023%=      5-min Rain = 0
KSDS 142125Z 06008G16KT 35/09 A3014 RMK A01 T03450094  RH  022%=      5-min Rain = 0
KSDS 142130Z 07006G12KT 34/09 A3014 RMK A01 T03400090  RH  022%=      5-min Rain = 0
KSDS 142135Z 12003KT 34/09 A3013 RMK A01 T03380088  RH  022%=      5-min Rain = 0
KSDS 142140Z 11004KT 34/09 A3013 RMK A01 T03400086  RH  022%=      5-min Rain = 0
KSDS 142145Z 11007KT 34/09 A3013 RMK A01 T03410090  RH  022%=      5-min Rain = 0
KSDS 142150Z 12006KT 34/09 A3013 RMK A01 T03400089  RH  022%=      5-min Rain = 0
KSDS 142155Z 15005G10KT 34/09 A3013 RMK A01 T03400088  RH  022%=      5-min Rain = 0
KSDS 142200Z 07006KT 34/09 A3013 RMK A01 T03410091  RH  022%=      5-min Rain = 0
KSDS 142205Z 08007KT 34/09 A3013 RMK A01 T03420090  RH  022%=      5-min Rain = 0
KSDS 142210Z 10005KT 34/09 A3012 RMK A01 T03400088  RH  022%=      5-min Rain = 0
KSDS 142215Z 07005G10KT 34/09 A3012 RMK A01 T03420088  RH  022%=      5-min Rain = 0
KSDS 142220Z 06006KT 34/09 A3012 RMK A01 T03420089  RH  022%=      5-min Rain = 0
KSDS 142225Z 02002KT 34/08 A3012 RMK A01 T03410084  RH  021%=      5-min Rain = 0
KSDS 142230Z 14001KT 34/08 A3012 RMK A01 T03440084  RH  021%=      5-min Rain = 0
KSDS 142235Z 01003KT 35/09 A3011 RMK A01 T03500090  RH  021%=      5-min Rain = 0
KSDS 142240Z 03005G10KT 35/09 A3011 RMK A01 T03480090  RH  021%=      5-min Rain = 0
KSDS 142245Z 04005G10KT 35/09 A3011 RMK A01 T03460089  RH  021%=      5-min Rain = 0
KSDS 142250Z 08005KT 34/09 A3011 RMK A01 T03430086  RH  021%=      5-min Rain = 0
KSDS 142255Z 07005G13KT 34/09 A3011 RMK A01 T03410090  RH  022%=      5-min Rain = 0
KSDS 142300Z 08007G13KT 34/09 A3011 RMK A01 T03410091  RH  022%=      5-min Rain = 0
KSDS 142305Z 08006KT 34/09 A3011 RMK A01 T03390092  RH  023%=      5-min Rain = 0
KSDS 142310Z 05008KT 34/09 A3011 RMK A01 T03420094  RH  023%=      5-min Rain = 0
KSDS 142315Z 03005G10KT 34/09 A3011 RMK A01 T03380090  RH  022%=      5-min Rain = 0
KSDS 142320Z 07008G13KT 34/10 A3011 RMK A01 T03390095  RH  023%=      5-min Rain = 0
KSDS 142325Z 07008KT 34/09 A3011 RMK A01 T03370093  RH  023%=      5-min Rain = 0
KSDS 142330Z 07008KT 34/10 A3011 RMK A01 T03370095  RH  023%=      5-min Rain = 0
KSDS 142335Z 08006KT 34/10 A3011 RMK A01 T03350095  RH  024%=      5-min Rain = 0
KSDS 142340Z 03006KT 34/10 A3011 RMK A01 T03360095  RH  023%=      5-min Rain = 0
KSDS 142345Z 06005KT 34/10 A3011 RMK A01 T03380096  RH  023%=      5-min Rain = 0
KSDS 142350Z 09003KT 34/09 A3011 RMK A01 T03370092  RH  023%=      5-min Rain = 0
KSDS 142355Z 08003KT 34/09 A3011 RMK A01 T03370090  RH  023%=      5-min Rain = 0
KSDS 150000Z 04006KT 34/10 A3011 RMK A01 T03360098  RH  024%=      5-min Rain = 0
KSDS 150005Z 06008KT 33/09 A3011 RMK A01 T03330094  RH  024%=      5-min Rain = 0
KSDS 150010Z 07007KT 33/09 A3011 RMK A01 T03310093  RH  024%=      5-min Rain = 0
KSDS 150015Z 07007KT 33/09 A3011 RMK A01 T03280092  RH  024%=      5-min Rain = 0
KSDS 150020Z 07006KT 33/09 A3011 RMK A01 T03250092  RH  025%=      5-min Rain = 0
KSDS 150025Z 05009KT 32/09 A3011 RMK A01 T03230093  RH  025%=      5-min Rain = 0
KSDS 150030Z 07006KT 32/09 A3011 RMK A01 T03230093  RH  025%=      5-min Rain = 0
KSDS 150035Z 07007KT 33/09 A3011 RMK A01 T03250093  RH  025%=      5-min Rain = 0
KSDS 150040Z 08006KT 33/10 A3012 RMK A01 T03250095  RH  025%=      5-min Rain = 0
KSDS 150045Z 08006KT 32/10 A3012 RMK A01 T03230095  RH  025%=      5-min Rain = 0
KSDS 150050Z 08006KT 32/10 A3012 RMK A01 T03220097  RH  026%=      5-min Rain = 0
KSDS 150055Z 07006KT 32/10 A3012 RMK A01 T03200098  RH  026%=      5-min Rain = 0
KSDS 150100Z 09007KT 32/10 A3012 RMK A01 T03170099  RH  027%=      5-min Rain = 0
KSDS 150105Z 09007KT 32/10 A3012 RMK A01 T03150097  RH  027%=      5-min Rain = 0
KSDS 150110Z 09006KT 31/10 A3012 RMK A01 T03120098  RH  027%=      5-min Rain = 0
KSDS 150115Z 09006KT 31/10 A3013 RMK A01 T03080099  RH  028%=      5-min Rain = 0
KSDS 150120Z 10006KT 30/10 A3013 RMK A01 T03020100  RH  030%=      5-min Rain = 0
KSDS 150125Z 10006KT 30/10 A3013 RMK A01 T02950101  RH  031%=      5-min Rain = 0
KSDS 150130Z 09006KT 29/10 A3013 RMK A01 T02910100  RH  031%=      5-min Rain = 0
KSDS 150135Z 09006KT 29/10 A3013 RMK A01 T02880099  RH  032%=      5-min Rain = 0
KSDS 150140Z 09006KT 29/10 A3014 RMK A01 T02850099  RH  032%=      5-min Rain = 0
KSDS 150145Z 10006KT 28/10 A3014 RMK A01 T02810100  RH  033%=      5-min Rain = 0
KSDS 150150Z 10006KT 28/10 A3014 RMK A01 T02780100  RH  034%=      5-min Rain = 0
KSDS 150155Z 10007KT 28/10 A3014 RMK A01 T02780099  RH  034%=      5-min Rain = 0
KSDS 150200Z 09007KT 28/10 A3014 RMK A01 T02770098  RH  034%=      5-min Rain = 0
KSDS 150205Z 09006KT 27/10 A3015 RMK A01 T02730099  RH  035%=      5-min Rain = 0
KSDS 150210Z 09007KT 27/10 A3015 RMK A01 T02700098  RH  035%=      5-min Rain = 0
KSDS 150215Z 09008KT 27/10 A3015 RMK A01 T02720097  RH  034%=      5-min Rain = 0
KSDS 150220Z 09008KT 27/10 A3015 RMK A01 T02720096  RH  034%=      5-min Rain = 0
KSDS 150225Z 08008KT 27/10 A3015 RMK A01 T02700096  RH  035%=      5-min Rain = 0
KSDS 150230Z 08007KT 27/10 A3015 RMK A01 T02700095  RH  034%=      5-min Rain = 0
KSDS 150235Z 09008KT 27/10 A3016 RMK A01 T02680095  RH  035%=      5-min Rain = 0
KSDS 150240Z 10007KT 27/10 A3016 RMK A01 T02690095  RH  034%=      5-min Rain = 0
KSDS 150245Z 09006KT 27/10 A3016 RMK A01 T02650096  RH  036%=      5-min Rain = 0
KSDS 150250Z 09007KT 26/10 A3016 RMK A01 T02590097  RH  037%=      5-min Rain = 0
KSDS 150255Z 10007KT 26/10 A3016 RMK A01 T02570097  RH  038%=      5-min Rain = 0
KSDS 150300Z 10007KT 25/10 A3016 RMK A01 T02540098  RH  038%=      5-min Rain = 0
KSDS 150305Z 10007KT 25/10 A3016 RMK A01 T02530098  RH  039%=      5-min Rain = 0
KSDS 150310Z 11007KT 25/10 A3016 RMK A01 T02530098  RH  039%=      5-min Rain = 0
KSDS 150315Z 10007KT 25/10 A3017 RMK A01 T02510098  RH  039%=      5-min Rain = 0
KSDS 150320Z 10008KT 25/10 A3017 RMK A01 T02510098  RH  039%=      5-min Rain = 0
KSDS 150325Z 10008KT 25/10 A3017 RMK A01 T02530098  RH  039%=      5-min Rain = 0
KSDS 150330Z 10008KT 25/10 A3017 RMK A01 T02540099  RH  039%=      5-min Rain = 0
KSDS 150335Z 10008KT 25/10 A3017 RMK A01 T02520102  RH  040%=      5-min Rain = 0
KSDS 150340Z 10007KT 25/11 A3017 RMK A01 T02500105  RH  041%=      5-min Rain = 0
KSDS 150345Z 10008KT 25/11 A3018 RMK A01 T02490107  RH  042%=      5-min Rain = 0
KSDS 150350Z 11008KT 25/11 A3018 RMK A01 T02490109  RH  043%=      5-min Rain = 0
KSDS 150355Z 10007KT 25/11 A3018 RMK A01 T02490110  RH  043%=      5-min Rain = 0
KSDS 150400Z 09007KT 25/11 A3018 RMK A01 T02500111  RH  043%=      5-min Rain = 0
KSDS 150405Z 09008KT 25/11 A3018 RMK A01 T02500112  RH  043%=      5-min Rain = 0
KSDS 150410Z 09008KT 25/11 A3018 RMK A01 T02510112  RH  043%=      5-min Rain = 0
KSDS 150415Z 10008KT 25/11 A3018 RMK A01 T02520113  RH  043%=      5-min Rain = 0
KSDS 150420Z 10008KT 25/11 A3018 RMK A01 T02510114  RH  044%=      5-min Rain = 0
KSDS 150425Z 10007KT 25/12 A3017 RMK A01 T02490115  RH  045%=      5-min Rain = 0
KSDS 150430Z 10007KT 25/12 A3018 RMK A01 T02490116  RH  045%=      5-min Rain = 0
KSDS 150435Z 10007KT 25/12 A3018 RMK A01 T02510118  RH  045%=      5-min Rain = 0
KSDS 150440Z 11007KT 25/12 A3018 RMK A01 T02510119  RH  045%=      5-min Rain = 0
KSDS 150445Z 11006KT 25/12 A3018 RMK A01 T02480120  RH  046%=      5-min Rain = 0
KSDS 150450Z 11006KT 25/12 A3018 RMK A01 T02460121  RH  047%=      5-min Rain = 0
KSDS 150455Z 11007KT 25/12 A3018 RMK A01 T02450122  RH  048%=      5-min Rain = 0

Page generated in 0.0091 seconds.